createdAt,value
2019-05-10T00:00:03.722Z,11.30
2019-05-10T00:03:04.907Z,11.30
2019-05-10T00:06:04.000Z,11.10
2019-05-10T00:08:46.733Z,11.00
2019-05-10T00:14:49.958Z,10.90
2019-05-10T00:17:29.738Z,10.90
2019-05-10T00:20:09.420Z,10.90
2019-05-10T00:25:29.326Z,10.90
2019-05-10T00:28:09.691Z,11.00
2019-05-10T00:30:49.898Z,11.10
2019-05-10T00:33:29.815Z,11.10
2019-05-10T00:36:10.110Z,11.10
2019-05-10T00:38:49.713Z,11.20
2019-05-10T00:41:29.777Z,11.20
2019-05-10T00:44:09.591Z,11.20
2019-05-10T00:46:49.719Z,11.20
2019-05-10T00:49:29.779Z,11.30
2019-05-10T00:52:09.643Z,11.30
2019-05-10T00:54:49.390Z,11.30
2019-05-10T00:57:29.310Z,11.30
2019-05-10T01:00:09.615Z,11.30
2019-05-10T01:02:49.460Z,11.20
2019-05-10T01:05:29.756Z,11.20
2019-05-10T01:08:09.648Z,11.30
2019-05-10T01:10:49.620Z,11.30
2019-05-10T01:13:29.709Z,11.30
2019-05-10T01:16:10.215Z,11.30
2019-05-10T01:18:49.819Z,11.30
2019-05-10T01:21:29.527Z,11.20
2019-05-10T01:24:10.412Z,11.20
2019-05-10T01:26:51.396Z,11.30
2019-05-10T01:29:31.384Z,11.20
2019-05-10T01:32:11.374Z,11.10
2019-05-10T01:34:51.473Z,11.00
2019-05-10T01:37:31.561Z,10.90
2019-05-10T01:40:11.764Z,10.90
2019-05-10T01:42:51.890Z,10.90
2019-05-10T01:45:29.739Z,10.80
2019-05-10T01:48:16.700Z,10.90
2019-05-10T01:50:56.527Z,10.80
2019-05-10T01:53:36.490Z,10.80
2019-05-10T01:56:16.711Z,10.80
2019-05-10T01:58:57.108Z,10.70
2019-05-10T02:01:37.093Z,10.60
2019-05-10T02:04:18.011Z,10.50
2019-05-10T02:06:58.334Z,10.40
2019-05-10T02:09:37.877Z,10.40
2019-05-10T02:12:17.847Z,10.30
2019-05-10T02:14:58.385Z,10.10
2019-05-10T02:17:38.901Z,9.90
2019-05-10T02:20:19.029Z,9.80
2019-05-10T02:22:59.005Z,9.80
2019-05-10T02:25:39.054Z,9.70
2019-05-10T02:28:18.912Z,9.60
2019-05-10T02:30:59.087Z,9.60
2019-05-10T02:33:39.444Z,9.60
2019-05-10T02:36:20.567Z,9.60
2019-05-10T02:39:00.787Z,9.50
2019-05-10T02:41:40.604Z,9.50
2019-05-10T02:44:21.532Z,9.40
2019-05-10T02:47:01.810Z,9.40
2019-05-10T02:49:42.329Z,9.40
2019-05-10T02:52:22.671Z,9.40
2019-05-10T02:55:03.574Z,9.30
2019-05-10T02:57:43.311Z,9.30
2019-05-10T03:00:23.512Z,9.30
2019-05-10T03:03:03.545Z,9.30
2019-05-10T03:05:48.146Z,9.30
2019-05-10T03:08:25.642Z,9.40
2019-05-10T03:11:05.488Z,9.40
2019-05-10T03:13:45.641Z,9.40
2019-05-10T03:16:25.982Z,9.40
2019-05-10T03:19:05.469Z,9.40
2019-05-10T03:21:45.422Z,9.40
2019-05-10T03:24:27.914Z,9.40
2019-05-10T03:27:07.538Z,9.30
2019-05-10T03:29:47.397Z,9.10
2019-05-10T03:32:27.623Z,9.10
2019-05-10T03:35:07.699Z,9.10
2019-05-10T03:37:47.763Z,9.00
2019-05-10T03:40:27.771Z,9.00
2019-05-10T03:43:08.821Z,9.00
2019-05-10T03:45:49.038Z,9.00
2019-05-10T03:51:09.061Z,9.00
2019-05-10T03:53:49.212Z,8.90
2019-05-10T03:56:30.036Z,8.80
2019-05-10T03:59:10.171Z,8.80
2019-05-10T04:01:50.434Z,8.70
2019-05-10T04:04:30.241Z,8.60
2019-05-10T04:07:10.268Z,8.60
2019-05-10T04:09:50.366Z,8.60
2019-05-10T04:12:30.579Z,8.60
2019-05-10T04:15:10.666Z,8.60
2019-05-10T04:17:50.836Z,8.50
2019-05-10T04:20:30.694Z,8.50
2019-05-10T04:23:10.624Z,8.50
2019-05-10T04:25:50.773Z,8.50
2019-05-10T04:28:30.756Z,8.50
2019-05-10T04:31:10.817Z,8.70
2019-05-10T04:33:50.987Z,8.80
2019-05-10T04:36:30.953Z,9.00
2019-05-10T04:39:11.373Z,9.10
2019-05-10T04:41:51.351Z,9.30
2019-05-10T04:44:31.339Z,9.50
2019-05-10T04:47:11.018Z,9.80
2019-05-10T04:49:49.102Z,10.10
2019-05-10T04:52:35.748Z,10.40
2019-05-10T04:55:15.968Z,10.70
2019-05-10T04:57:55.635Z,10.90
2019-05-10T05:00:35.673Z,11.10
2019-05-10T05:03:16.061Z,11.30
2019-05-10T05:05:56.115Z,11.60
2019-05-10T05:08:36.399Z,11.60
2019-05-10T05:11:16.513Z,11.70
2019-05-10T05:13:56.614Z,11.50
2019-05-10T05:16:39.558Z,11.70
2019-05-10T05:19:19.431Z,12.10
2019-05-10T05:21:57.397Z,12.30
2019-05-10T05:27:43.939Z,12.80
2019-05-10T05:30:23.941Z,12.90
2019-05-10T05:33:03.899Z,13.20
2019-05-10T05:35:43.977Z,13.20
2019-05-10T05:38:24.020Z,13.20
2019-05-10T05:41:05.039Z,13.60
2019-05-10T05:43:46.174Z,13.70
2019-05-10T05:46:27.242Z,13.80
2019-05-10T05:49:07.483Z,13.70
2019-05-10T05:51:47.633Z,13.80
2019-05-10T05:54:27.449Z,14.00
2019-05-10T05:57:07.839Z,13.80
2019-05-10T06:02:29.045Z,13.60
2019-05-10T06:05:09.351Z,13.80
2019-05-10T06:07:53.217Z,13.70
2019-05-10T06:10:33.484Z,13.90
2019-05-10T06:13:13.415Z,14.00
2019-05-10T06:15:53.776Z,14.20
2019-05-10T06:18:33.690Z,14.40
2019-05-10T06:21:17.999Z,14.80
2019-05-10T06:23:59.272Z,14.90
2019-05-10T06:26:38.698Z,14.90
2019-05-10T06:29:19.893Z,14.80
2019-05-10T06:31:59.632Z,15.00
2019-05-10T06:34:40.248Z,15.20
2019-05-10T06:37:20.350Z,15.50
2019-05-10T06:40:00.318Z,15.60
2019-05-10T06:42:40.593Z,15.70
2019-05-10T06:45:20.170Z,15.80
2019-05-10T06:48:00.208Z,15.80
2019-05-10T06:50:40.539Z,16.10
2019-05-10T06:53:23.283Z,16.20
2019-05-10T06:56:02.590Z,16.20
2019-05-10T06:58:42.464Z,16.90
2019-05-10T07:01:22.584Z,17.10
2019-05-10T07:04:02.824Z,17.20
2019-05-10T07:06:42.915Z,17.10
2019-05-10T07:09:23.711Z,17.10
2019-05-10T07:12:03.126Z,17.10
2019-05-10T07:14:46.022Z,17.30
2019-05-10T07:17:25.953Z,17.10
2019-05-10T07:20:06.272Z,17.30
2019-05-10T07:22:46.414Z,17.70
2019-05-10T07:25:27.513Z,17.80
2019-05-10T07:28:09.324Z,17.90
2019-05-10T07:30:49.488Z,18.80
2019-05-10T07:33:32.201Z,19.20
2019-05-10T07:36:15.254Z,18.80
2019-05-10T07:38:54.293Z,18.80
2019-05-10T07:41:34.583Z,18.30
2019-05-10T07:44:14.421Z,18.10
2019-05-10T07:46:58.318Z,18.60
2019-05-10T07:49:36.459Z,19.10
2019-05-10T07:52:16.401Z,19.90
2019-05-10T07:54:56.580Z,19.60
2019-05-10T07:57:36.614Z,19.60
2019-05-10T08:00:16.836Z,20.10
2019-05-10T08:03:07.409Z,20.30
2019-05-10T08:05:39.263Z,19.80
2019-05-10T08:08:19.314Z,19.60
2019-05-10T08:10:59.511Z,19.80
2019-05-10T08:13:39.619Z,20.40
2019-05-10T08:16:22.923Z,20.00
2019-05-10T08:19:02.380Z,20.50
2019-05-10T08:21:42.959Z,21.10
2019-05-10T08:24:22.707Z,21.70
2019-05-10T08:27:09.813Z,21.50
2019-05-10T08:29:44.982Z,21.40
2019-05-10T08:32:29.797Z,21.10
2019-05-10T08:35:16.390Z,20.90
2019-05-10T08:37:48.951Z,20.80
2019-05-10T08:40:36.738Z,21.50
2019-05-10T08:43:10.914Z,21.50
2019-05-10T08:45:57.978Z,21.40
2019-05-10T08:48:58.453Z,21.60
2019-05-10T08:54:18.537Z,23.00
2019-05-10T08:57:01.030Z,22.90
2019-05-10T08:59:42.634Z,22.40
2019-05-10T09:02:28.867Z,21.60
2019-05-10T09:05:04.570Z,21.70
2019-05-10T09:07:45.389Z,22.30
2019-05-10T09:10:26.400Z,22.90
2019-05-10T09:13:06.796Z,23.20
2019-05-10T09:15:51.856Z,23.30
2019-05-10T09:18:38.243Z,23.80
2019-05-10T09:21:35.236Z,24.40
2019-05-10T09:24:15.476Z,24.00
2019-05-10T09:26:57.119Z,24.10
2019-05-10T09:29:37.377Z,24.50
2019-05-10T09:32:28.824Z,24.00
2019-05-10T09:35:09.085Z,23.10
2019-05-10T09:37:52.889Z,23.80
2019-05-10T09:40:29.937Z,24.00
2019-05-10T09:43:12.511Z,23.60
2019-05-10T09:45:53.009Z,25.00
2019-05-10T09:48:33.457Z,25.70
2019-05-10T09:51:13.890Z,25.90
2019-05-10T09:53:54.307Z,25.50
2019-05-10T09:56:39.511Z,24.90
2019-05-10T09:59:17.914Z,25.40
2019-05-10T10:01:58.178Z,25.40
2019-05-10T10:04:38.464Z,25.50
2019-05-10T10:07:19.134Z,26.40
2019-05-10T10:09:58.981Z,27.60
2019-05-10T10:12:39.071Z,28.00
2019-05-10T10:15:29.776Z,28.00
2019-05-10T10:18:01.409Z,28.90
2019-05-10T10:20:45.055Z,28.40
2019-05-10T10:23:24.732Z,27.70
2019-05-10T10:26:07.214Z,26.50
2019-05-10T10:28:49.559Z,26.40
2019-05-10T10:31:33.330Z,26.40
2019-05-10T10:34:12.710Z,26.70
2019-05-10T10:36:52.065Z,26.60
2019-05-10T10:39:32.603Z,26.70
2019-05-10T10:42:13.358Z,27.00
2019-05-10T10:44:53.459Z,27.20
2019-05-10T10:47:33.469Z,27.30
2019-05-10T10:50:13.812Z,27.00
2019-05-10T10:52:54.592Z,27.20
2019-05-10T10:55:37.087Z,27.60
2019-05-10T10:58:18.426Z,27.10
2019-05-10T11:00:58.926Z,26.00
2019-05-10T11:03:39.120Z,25.20
2019-05-10T11:06:19.476Z,25.20
2019-05-10T11:09:01.734Z,25.80
2019-05-10T11:11:44.817Z,26.10
2019-05-10T11:14:25.305Z,25.00
2019-05-10T11:17:05.685Z,24.50
2019-05-10T11:19:45.762Z,24.60
2019-05-10T11:22:27.482Z,26.50
2019-05-10T11:25:10.403Z,27.40
2019-05-10T11:27:53.941Z,27.70
2019-05-10T11:30:32.499Z,28.60
2019-05-10T11:33:25.799Z,28.70
2019-05-10T11:35:57.758Z,28.60
2019-05-10T11:38:36.751Z,28.00
2019-05-10T11:41:22.036Z,27.50
2019-05-10T11:44:05.602Z,26.80
2019-05-10T11:49:30.782Z,26.10
2019-05-10T11:52:13.205Z,25.50
2019-05-10T11:54:53.435Z,24.90
2019-05-10T11:57:33.172Z,24.40
2019-05-10T12:03:07.402Z,26.30
2019-05-10T12:05:37.100Z,27.00
2019-05-10T12:08:16.496Z,27.00
2019-05-10T12:11:08.392Z,26.90
2019-05-10T12:13:39.306Z,27.30
2019-05-10T12:19:07.154Z,28.40
2019-05-10T12:21:42.052Z,29.40
2019-05-10T12:24:39.024Z,30.80
2019-05-10T12:26:06.012Z,24.70
2019-05-10T12:27:18.597Z,31.90
2019-05-10T12:29:46.594Z,32.70
2019-05-10T12:32:33.315Z,32.90
2019-05-10T12:35:11.737Z,32.80
2019-05-10T12:40:31.726Z,32.00
2019-05-10T12:43:11.776Z,32.00
2019-05-10T12:45:56.597Z,32.00
2019-05-10T12:51:16.698Z,32.70
2019-05-10T12:53:55.471Z,33.40
2019-05-10T12:56:44.360Z,33.00
2019-05-10T12:59:44.363Z,32.00
2019-05-10T13:02:24.623Z,31.40
2019-05-10T13:05:04.988Z,30.90
2019-05-10T13:07:44.855Z,29.90
2019-05-10T13:10:24.658Z,29.40
2019-05-10T13:13:04.548Z,29.40
2019-05-10T13:15:44.808Z,30.00
2019-05-10T13:18:48.212Z,30.70
2019-05-10T13:21:07.966Z,31.60
2019-05-10T13:23:53.346Z,31.80
2019-05-10T13:26:31.783Z,31.90
2019-05-10T13:29:11.575Z,31.20
2019-05-10T13:31:51.946Z,31.20
2019-05-10T13:34:35.067Z,31.40
2019-05-10T13:37:23.086Z,31.70
2019-05-10T13:39:58.306Z,32.20
2019-05-10T13:42:43.577Z,33.30
2019-05-10T13:45:21.042Z,33.30
2019-05-10T13:47:48.720Z,33.20
2019-05-10T13:50:16.234Z,33.20
2019-05-10T13:52:56.107Z,33.20
2019-05-10T13:55:36.102Z,33.00
2019-05-10T13:58:16.264Z,33.20
2019-05-10T14:00:56.619Z,33.50
2019-05-10T14:03:44.444Z,32.90
2019-05-10T14:06:20.108Z,32.80
2019-05-10T14:11:46.294Z,32.40
2019-05-10T14:14:26.452Z,31.30
2019-05-10T14:17:04.248Z,29.40
2019-05-10T14:19:44.798Z,28.10
2019-05-10T14:22:24.324Z,27.20
2019-05-10T14:25:02.665Z,27.20
2019-05-10T14:27:50.042Z,27.00
2019-05-10T14:30:29.954Z,26.40
2019-05-10T14:33:14.818Z,26.00
2019-05-10T14:36:00.371Z,25.60
2019-05-10T14:38:36.917Z,25.70
2019-05-10T14:41:17.932Z,25.90
2019-05-10T14:43:59.013Z,25.80
2019-05-10T14:46:39.049Z,26.40
2019-05-10T14:49:18.881Z,26.40
2019-05-10T14:51:59.772Z,26.50
2019-05-10T14:54:43.621Z,26.30
2019-05-10T14:57:20.969Z,25.60
2019-05-10T15:00:04.402Z,25.20
2019-05-10T15:02:44.051Z,25.00
2019-05-10T15:05:23.973Z,25.50
2019-05-10T15:08:07.579Z,25.50
2019-05-10T15:10:46.978Z,25.00
2019-05-10T15:13:28.277Z,24.50
2019-05-10T15:16:12.593Z,23.90
2019-05-10T15:18:50.385Z,23.50
2019-05-10T15:21:30.333Z,23.30
2019-05-10T15:24:09.654Z,23.10
2019-05-10T15:26:50.173Z,22.90
2019-05-10T15:29:29.943Z,22.60
2019-05-10T15:32:10.166Z,22.30
2019-05-10T15:35:05.251Z,22.20
2019-05-10T15:37:32.572Z,22.20
2019-05-10T15:40:12.520Z,22.30
2019-05-10T15:42:52.824Z,22.40
2019-05-10T15:45:32.706Z,22.80
2019-05-10T15:48:13.971Z,23.10
2019-05-10T15:50:54.142Z,23.20
2019-05-10T15:53:25.637Z,23.10
2019-05-10T15:55:50.121Z,22.80
2019-05-10T15:58:17.370Z,22.60
2019-05-10T16:00:44.831Z,22.80
2019-05-10T16:03:11.887Z,23.30
2019-05-10T16:05:43.697Z,23.80
2019-05-10T16:08:08.240Z,23.90
2019-05-10T16:10:39.479Z,23.50
2019-05-10T16:13:05.564Z,23.00
2019-05-10T16:15:32.535Z,22.80
2019-05-10T16:18:05.242Z,22.50
2019-05-10T16:20:37.325Z,22.30
2019-05-10T16:23:02.785Z,21.90
2019-05-10T16:25:32.898Z,21.60
2019-05-10T16:28:01.646Z,21.40
2019-05-10T16:30:29.476Z,21.20
2019-05-10T16:32:56.989Z,21.30
2019-05-10T16:35:37.783Z,21.60
2019-05-10T16:37:53.109Z,22.30
2019-05-10T16:40:20.504Z,22.60
2019-05-10T16:42:47.549Z,22.50
2019-05-10T16:45:15.072Z,22.30
2019-05-10T16:47:42.400Z,21.90
2019-05-10T16:50:10.437Z,21.70
2019-05-10T16:52:37.881Z,21.80
2019-05-10T16:55:05.600Z,22.00
2019-05-10T16:57:37.382Z,22.00
2019-05-10T17:00:07.593Z,21.90
2019-05-10T17:02:36.606Z,21.70
2019-05-10T17:05:01.925Z,21.40
2019-05-10T17:07:29.109Z,21.20
2019-05-10T17:09:56.389Z,21.00
2019-05-10T17:12:27.647Z,20.70
2019-05-10T17:14:56.305Z,20.30
2019-05-10T17:17:21.676Z,20.10
2019-05-10T17:19:49.134Z,19.80
2019-05-10T17:22:16.271Z,19.70
2019-05-10T17:24:43.577Z,19.50
2019-05-10T17:27:11.424Z,19.40
2019-05-10T17:29:38.818Z,19.50
2019-05-10T17:32:06.939Z,19.50
2019-05-10T17:34:34.344Z,19.50
2019-05-10T17:37:01.808Z,19.60
2019-05-10T17:39:32.045Z,19.60
2019-05-10T17:42:03.239Z,19.70
2019-05-10T17:44:28.763Z,19.60
2019-05-10T17:46:57.392Z,19.50
2019-05-10T17:49:25.068Z,19.50
2019-05-10T17:51:52.440Z,19.40
2019-05-10T17:54:20.296Z,19.30
2019-05-10T17:56:47.412Z,19.20
2019-05-10T17:59:14.897Z,19.20
2019-05-10T18:01:43.397Z,19.10
2019-05-10T18:04:10.431Z,19.00
2019-05-10T18:06:37.440Z,18.90
2019-05-10T18:09:05.685Z,18.70
2019-05-10T18:11:36.961Z,18.60
2019-05-10T18:14:01.861Z,18.50
2019-05-10T18:16:29.853Z,18.30
2019-05-10T18:18:58.081Z,18.20
2019-05-10T18:21:25.495Z,18.00
2019-05-10T18:23:58.161Z,17.90
2019-05-10T18:26:22.266Z,17.80
2019-05-10T18:28:49.515Z,17.60
2019-05-10T18:31:16.725Z,17.50
2019-05-10T18:33:44.896Z,17.40
2019-05-10T18:36:13.166Z,17.30
2019-05-10T18:38:41.076Z,17.20
2019-05-10T18:41:10.010Z,17.10
2019-05-10T18:43:40.607Z,16.90
2019-05-10T18:46:08.781Z,16.80
2019-05-10T18:48:39.776Z,16.70
2019-05-10T18:51:07.476Z,16.60
2019-05-10T18:53:34.992Z,16.50
2019-05-10T18:56:02.639Z,16.50
2019-05-10T18:58:31.581Z,16.40
2019-05-10T19:01:00.791Z,16.40
2019-05-10T19:03:33.651Z,16.40
2019-05-10T19:05:57.418Z,16.40
2019-05-10T19:08:24.656Z,16.30
2019-05-10T19:10:52.352Z,16.30
2019-05-10T19:13:19.790Z,16.30
2019-05-10T19:15:52.856Z,16.30
2019-05-10T19:18:17.870Z,16.30
2019-05-10T19:20:48.864Z,16.20
2019-05-10T19:23:19.356Z,16.10
2019-05-10T19:25:51.551Z,16.00
2019-05-10T19:28:14.870Z,16.00
2019-05-10T19:30:42.480Z,16.00
2019-05-10T19:33:09.583Z,16.00
2019-05-10T19:35:37.912Z,16.00
2019-05-10T19:38:05.350Z,15.90
2019-05-10T19:40:32.395Z,15.70
2019-05-10T19:42:59.955Z,15.60
2019-05-10T19:45:30.572Z,15.60
2019-05-10T19:47:57.190Z,15.60
2019-05-10T19:50:30.945Z,15.70
2019-05-10T19:52:58.499Z,15.60
2019-05-10T19:55:25.596Z,15.60
2019-05-10T19:57:54.809Z,15.50
2019-05-10T20:00:22.463Z,15.30
2019-05-10T20:02:50.119Z,15.30
2019-05-10T20:05:17.308Z,15.30
2019-05-10T20:07:46.587Z,15.20
2019-05-10T20:10:17.634Z,15.20
2019-05-10T20:12:44.914Z,15.10
2019-05-10T20:15:12.127Z,15.20
2019-05-10T20:17:39.332Z,15.20
2019-05-10T20:20:06.658Z,15.20
2019-05-10T20:22:36.093Z,15.20
2019-05-10T20:25:06.778Z,15.10
2019-05-10T20:27:33.968Z,15.10
2019-05-10T20:30:01.331Z,15.10
2019-05-10T20:32:28.682Z,15.00
2019-05-10T20:34:56.301Z,15.10
2019-05-10T20:37:23.723Z,15.10
2019-05-10T20:39:51.296Z,15.20
2019-05-10T20:42:18.404Z,15.10
2019-05-10T20:44:45.833Z,15.20
2019-05-10T20:47:13.403Z,15.10
2019-05-10T20:49:40.584Z,15.10
2019-05-10T20:52:11.162Z,15.00
2019-05-10T20:54:38.128Z,15.00
2019-05-10T20:57:05.329Z,15.00
2019-05-10T20:59:32.510Z,15.00
2019-05-10T21:01:59.747Z,15.00
2019-05-10T21:04:27.091Z,15.00
2019-05-10T21:06:54.306Z,15.00
2019-05-10T21:09:21.699Z,15.00
2019-05-10T21:11:49.321Z,15.00
2019-05-10T21:14:17.167Z,15.00
2019-05-10T21:16:44.610Z,14.90
2019-05-10T21:19:12.117Z,14.80
2019-05-10T21:21:39.516Z,14.80
2019-05-10T21:24:07.085Z,14.90
2019-05-10T21:26:34.766Z,14.90
2019-05-10T21:29:02.062Z,14.90
2019-05-10T21:31:29.435Z,14.90
2019-05-10T21:34:09.228Z,14.90
2019-05-10T21:36:29.634Z,14.90
2019-05-10T21:38:56.974Z,14.80
2019-05-10T21:41:24.559Z,14.80
2019-05-10T21:43:55.165Z,14.80
2019-05-10T21:46:22.698Z,14.80
2019-05-10T21:48:50.874Z,14.80
2019-05-10T21:51:18.022Z,14.70
2019-05-10T21:53:45.633Z,14.70
2019-05-10T21:56:12.874Z,14.70
2019-05-10T21:58:40.372Z,14.60
2019-05-10T22:01:07.624Z,14.40
2019-05-10T22:03:34.906Z,14.30
2019-05-10T22:06:02.690Z,14.20
2019-05-10T22:08:29.707Z,14.10
2019-05-10T22:10:56.852Z,14.00
2019-05-10T22:13:24.254Z,13.90
2019-05-10T22:15:51.551Z,13.90
2019-05-10T22:18:19.127Z,13.90
2019-05-10T22:20:46.874Z,13.90
2019-05-10T22:23:13.880Z,13.80
2019-05-10T22:25:41.090Z,13.80
2019-05-10T22:28:08.860Z,13.80
2019-05-10T22:30:36.067Z,13.80
2019-05-10T22:33:03.216Z,13.90
2019-05-10T22:35:30.543Z,13.80
2019-05-10T22:37:57.615Z,13.70
2019-05-10T22:40:24.843Z,13.60
2019-05-10T22:42:52.236Z,13.60
2019-05-10T22:45:19.705Z,13.50
2019-05-10T22:47:47.063Z,13.50
2019-05-10T22:50:14.691Z,13.50
2019-05-10T22:52:42.159Z,13.40
2019-05-10T22:55:09.570Z,13.30
2019-05-10T22:57:36.883Z,13.30
2019-05-10T23:00:04.554Z,13.30
2019-05-10T23:02:33.679Z,13.20
2019-05-10T23:05:00.587Z,13.20
2019-05-10T23:07:27.784Z,13.10
2019-05-10T23:09:55.510Z,13.00
2019-05-10T23:12:22.610Z,13.00
2019-05-10T23:14:53.896Z,13.00
2019-05-10T23:17:22.322Z,12.90
2019-05-10T23:19:48.741Z,12.90
2019-05-10T23:22:18.879Z,12.90
2019-05-10T23:24:45.892Z,12.80
2019-05-10T23:27:13.350Z,12.80
2019-05-10T23:29:40.678Z,12.80
2019-05-10T23:32:08.019Z,12.70
2019-05-10T23:34:35.573Z,12.70
2019-05-10T23:37:02.789Z,12.60
2019-05-10T23:39:40.183Z,12.50
2019-05-10T23:41:59.182Z,12.50
2019-05-10T23:44:27.034Z,12.40
2019-05-10T23:46:54.320Z,12.30
2019-05-10T23:49:21.738Z,12.30
2019-05-10T23:51:48.739Z,12.30
2019-05-10T23:54:15.952Z,12.20
2019-05-10T23:56:43.024Z,12.30
2019-05-10T23:59:10.813Z,12.30
